LNR023 UDYZ-LFPG
Flight info
| Callsign | LNR023 |
|---|---|
| Flight time | N/A |
| Altitude | 34000 |
| Route | INDUR B374 BIRZU UB374 ERZ UL746 ODERO DCT OPT/N0453F360 DCT IRLOX DCT BALUX DCT BEGLA DCT DEXIT DCT INBED DCT BOMBI DCT RUDUS DCT NOSPA DCT BITBU DCT DIK UN857 TOLVU/N0454F370 DCT RAPOR DCT VEDUS |
| Aircraft | A320/M-SDE3FGHIRWY/LB1 |
Departure
| Time | 2026-05-05 13:18 |
|---|---|
| Airport | Zvartnots International Airport (UDYZ) |
Arrival
| Time | N/A |
|---|---|
| Airport | Charles de Gaulle International Airport (LFPG) |
| Time | Latitude | Longitude | Altitude | Speed | Heading |
|---|---|---|---|---|---|
| 2026-05-05 12:53 | 40.15098 | 44.39935 | 2821 ft | 0 kts | 360° |
| 2026-05-05 13:03 | 40.15081 | 44.39935 | 2822 ft | 4 kts | 359° |
| 2026-05-05 13:03 | 40.15054 | 44.39935 | 2822 ft | 4 kts | 359° |
| 2026-05-05 13:04 | 40.15027 | 44.39937 | 2821 ft | 4 kts | 344° |
| 2026-05-05 13:04 | 40.15004 | 44.39953 | 2820 ft | 4 kts | 315° |
| 2026-05-05 13:04 | 40.14998 | 44.39961 | 2820 ft | 0 kts | 311° |
| 2026-05-05 13:09 | 40.14994 | 44.39915 | 2819 ft | 11 kts | 250° |
| 2026-05-05 13:09 | 40.14981 | 44.39759 | 2818 ft | 15 kts | 270° |
| 2026-05-05 13:09 | 40.14981 | 44.39751 | 2818 ft | 0 kts | 270° |
| 2026-05-05 13:13 | 40.14981 | 44.39744 | 2837 ft | 5 kts | 270° |
| 2026-05-05 13:14 | 40.14981 | 44.39579 | 2817 ft | 24 kts | 270° |
| 2026-05-05 13:14 | 40.14979 | 44.39360 | 2817 ft | 24 kts | 269° |
| 2026-05-05 13:14 | 40.14977 | 44.39135 | 2816 ft | 25 kts | 269° |
| 2026-05-05 13:14 | 40.14975 | 44.38908 | 2817 ft | 25 kts | 269° |
| 2026-05-05 13:15 | 40.14975 | 44.38673 | 2813 ft | 26 kts | 270° |
| 2026-05-05 13:15 | 40.14976 | 44.38437 | 2814 ft | 21 kts | 270° |
| 2026-05-05 13:15 | 40.14896 | 44.38303 | 2809 ft | 20 kts | 210° |
| 2026-05-05 13:15 | 40.14775 | 44.38212 | 2810 ft | 20 kts | 210° |
| 2026-05-05 13:16 | 40.14722 | 44.38054 | 2797 ft | 23 kts | 270° |
| 2026-05-05 13:16 | 40.14721 | 44.37821 | 2804 ft | 26 kts | 270° |
| 2026-05-05 13:16 | 40.14720 | 44.37580 | 2802 ft | 27 kts | 269° |
| 2026-05-05 13:16 | 40.14748 | 44.37386 | 2798 ft | 11 kts | 253° |
| 2026-05-05 13:17 | 40.14723 | 44.37402 | 2794 ft | 9 kts | 120° |
| 2026-05-05 13:17 | 40.14720 | 44.37512 | 2802 ft | 23 kts | 89° |
| 2026-05-05 13:17 | 40.14722 | 44.37996 | 2807 ft | 86 kts | 89° |
| 2026-05-05 13:17 | 40.14729 | 44.39042 | 2817 ft | 142 kts | 90° |
| 2026-05-05 13:18 | 40.14752 | 44.40514 | 2966 ft | 171 kts | 90° |
| 2026-05-05 13:18 | 40.14749 | 44.42033 | 3724 ft | 169 kts | 90° |
| 2026-05-05 13:18 | 40.14764 | 44.43607 | 4308 ft | 176 kts | 94° |
| 2026-05-05 13:18 | 40.14550 | 44.45199 | 4826 ft | 182 kts | 118° |
| 2026-05-05 13:19 | 40.13615 | 44.46322 | 5029 ft | 193 kts | 165° |
| 2026-05-05 13:19 | 40.12286 | 44.46197 | 5278 ft | 205 kts | 205° |
| 2026-05-05 13:19 | 40.11187 | 44.44928 | 5492 ft | 222 kts | 243° |
| 2026-05-05 13:19 | 40.10865 | 44.42910 | 5750 ft | 236 kts | 268° |
| 2026-05-05 13:20 | 40.10859 | 44.40654 | 6040 ft | 255 kts | 271° |
| 2026-05-05 13:20 | 40.10914 | 44.38278 | 6453 ft | 272 kts | 272° |
| 2026-05-05 13:20 | 40.10981 | 44.35753 | 6980 ft | 282 kts | 272° |
| 2026-05-05 13:20 | 40.11046 | 44.33180 | 7698 ft | 285 kts | 271° |
| 2026-05-05 13:21 | 40.11098 | 44.30574 | 8424 ft | 289 kts | 269° |
| 2026-05-05 13:21 | 40.11136 | 44.27931 | 9144 ft | 292 kts | 269° |
| 2026-05-05 13:21 | 40.11164 | 44.25294 | 9859 ft | 295 kts | 268° |
| 2026-05-05 13:21 | 40.11187 | 44.22578 | 10291 ft | 308 kts | 268° |
| 2026-05-05 13:22 | 40.11208 | 44.19670 | 10438 ft | 331 kts | 269° |
| 2026-05-05 13:22 | 40.11231 | 44.16554 | 10559 ft | 353 kts | 268° |
| 2026-05-05 13:22 | 40.11255 | 44.13259 | 10701 ft | 372 kts | 269° |
| 2026-05-05 13:22 | 40.11285 | 44.09839 | 11127 ft | 380 kts | 269° |
| 2026-05-05 13:23 | 40.11319 | 44.06368 | 11688 ft | 384 kts | 269° |
| 2026-05-05 13:23 | 40.11350 | 44.02861 | 12315 ft | 386 kts | 269° |
| 2026-05-05 13:23 | 40.11377 | 43.99346 | 12953 ft | 388 kts | 268° |
| 2026-05-05 13:23 | 40.11402 | 43.95849 | 13538 ft | 391 kts | 268° |
| 2026-05-05 13:24 | 40.11426 | 43.92280 | 14055 ft | 394 kts | 268° |
| 2026-05-05 13:24 | 40.11450 | 43.88682 | 14531 ft | 397 kts | 268° |
| 2026-05-05 13:24 | 40.11472 | 43.85066 | 15036 ft | 400 kts | 269° |
| 2026-05-05 13:24 | 40.11495 | 43.81409 | 15534 ft | 403 kts | 269° |
| 2026-05-05 13:25 | 40.11516 | 43.77775 | 16016 ft | 406 kts | 269° |
| 2026-05-05 13:25 | 40.11533 | 43.74052 | 16495 ft | 409 kts | 269° |
| 2026-05-05 13:25 | 40.11547 | 43.70325 | 16961 ft | 412 kts | 269° |
| 2026-05-05 13:25 | 40.11557 | 43.66582 | 17431 ft | 414 kts | 268° |
| 2026-05-05 13:26 | 40.11486 | 43.62807 | 17902 ft | 416 kts | 266° |
| 2026-05-05 13:26 | 40.11317 | 43.59026 | 18332 ft | 418 kts | 264° |
| 2026-05-05 13:26 | 40.11087 | 43.55231 | 18725 ft | 420 kts | 264° |
| 2026-05-05 13:26 | 40.10832 | 43.51423 | 19125 ft | 422 kts | 263° |
| 2026-05-05 13:27 | 40.10584 | 43.47600 | 19550 ft | 423 kts | 263° |
| 2026-05-05 13:27 | 40.10348 | 43.43759 | 19923 ft | 425 kts | 264° |
| 2026-05-05 13:27 | 40.10123 | 43.39896 | 20304 ft | 427 kts | 264° |
| 2026-05-05 13:27 | 40.09908 | 43.36017 | 20665 ft | 429 kts | 265° |
| 2026-05-05 13:28 | 40.09699 | 43.32121 | 21037 ft | 431 kts | 264° |
| 2026-05-05 13:28 | 40.09489 | 43.28213 | 21399 ft | 432 kts | 264° |
| 2026-05-05 13:28 | 40.09272 | 43.24287 | 21732 ft | 435 kts | 265° |
| 2026-05-05 13:28 | 40.09052 | 43.20340 | 22074 ft | 436 kts | 264° |
| 2026-05-05 13:29 | 40.08829 | 43.16383 | 22434 ft | 437 kts | 264° |
| 2026-05-05 13:29 | 40.08605 | 43.12413 | 22789 ft | 439 kts | 264° |
| 2026-05-05 13:29 | 40.08377 | 43.08426 | 23119 ft | 441 kts | 264° |
| 2026-05-05 13:29 | 40.08150 | 43.04462 | 23406 ft | 444 kts | 264° |
| 2026-05-05 13:30 | 40.07914 | 43.00439 | 23703 ft | 445 kts | 263° |
| 2026-05-05 13:30 | 40.07673 | 42.96391 | 24016 ft | 446 kts | 264° |
| 2026-05-05 13:30 | 40.07431 | 42.92352 | 24281 ft | 447 kts | 264° |
| 2026-05-05 13:30 | 40.07190 | 42.88302 | 24524 ft | 448 kts | 263° |
| 2026-05-05 13:31 | 40.06948 | 42.84241 | 24792 ft | 449 kts | 264° |
| 2026-05-05 13:31 | 40.06705 | 42.80163 | 25069 ft | 450 kts | 264° |
| 2026-05-05 13:31 | 40.06463 | 42.76084 | 25313 ft | 451 kts | 264° |
| 2026-05-05 13:31 | 40.06302 | 42.73362 | 25464 ft | 453 kts | 264° |
| 2026-05-05 13:32 | 40.06057 | 42.69261 | 25706 ft | 454 kts | 263° |
| 2026-05-05 13:32 | 40.05725 | 42.63808 | 26038 ft | 455 kts | 263° |
| 2026-05-05 13:32 | 40.05471 | 42.59685 | 26251 ft | 456 kts | 263° |
| 2026-05-05 13:32 | 40.05298 | 42.56891 | 26439 ft | 456 kts | 263° |
| 2026-05-05 13:33 | 40.05046 | 42.52818 | 26808 ft | 454 kts | 263° |
| 2026-05-05 13:33 | 40.04794 | 42.48718 | 27178 ft | 452 kts | 263° |
| 2026-05-05 13:33 | 40.04543 | 42.44635 | 27543 ft | 450 kts | 263° |
| 2026-05-05 13:33 | 40.04287 | 42.40550 | 27904 ft | 449 kts | 263° |
| 2026-05-05 13:34 | 40.04016 | 42.36499 | 28262 ft | 447 kts | 263° |
| 2026-05-05 13:34 | 40.03736 | 42.32464 | 28626 ft | 446 kts | 263° |
| 2026-05-05 13:34 | 40.03454 | 42.28443 | 29006 ft | 444 kts | 262° |
| 2026-05-05 13:34 | 40.03171 | 42.24439 | 29377 ft | 442 kts | 262° |
| 2026-05-05 13:35 | 40.02890 | 42.20447 | 29754 ft | 441 kts | 262° |
| 2026-05-05 13:35 | 40.02613 | 42.16449 | 30084 ft | 440 kts | 262° |
| 2026-05-05 13:35 | 40.02337 | 42.12480 | 30365 ft | 439 kts | 262° |
| 2026-05-05 13:35 | 40.02060 | 42.08508 | 30626 ft | 438 kts | 262° |
| 2026-05-05 13:36 | 40.01783 | 42.04602 | 30877 ft | 438 kts | 262° |
| 2026-05-05 13:36 | 40.01500 | 42.00638 | 31131 ft | 438 kts | 262° |
| 2026-05-05 13:36 | 40.01216 | 41.96681 | 31380 ft | 438 kts | 262° |
| 2026-05-05 13:36 | 40.00933 | 41.92727 | 31626 ft | 437 kts | 262° |
| 2026-05-05 13:37 | 40.00650 | 41.88778 | 31898 ft | 437 kts | 261° |
| 2026-05-05 13:37 | 40.00366 | 41.84825 | 32161 ft | 437 kts | 261° |
| 2026-05-05 13:37 | 40.00078 | 41.80885 | 32426 ft | 436 kts | 261° |
| 2026-05-05 13:37 | 39.99787 | 41.76938 | 32678 ft | 436 kts | 261° |
| 2026-05-05 13:38 | 39.99495 | 41.72992 | 32914 ft | 436 kts | 261° |
| 2026-05-05 13:38 | 39.99214 | 41.69096 | 33148 ft | 436 kts | 261° |
| 2026-05-05 13:38 | 39.98932 | 41.65110 | 33416 ft | 437 kts | 261° |
| 2026-05-05 13:38 | 39.98657 | 41.61213 | 33640 ft | 436 kts | 261° |
| 2026-05-05 13:39 | 39.98375 | 41.57264 | 33877 ft | 436 kts | 261° |
| 2026-05-05 13:39 | 39.98092 | 41.53328 | 33992 ft | 438 kts | 261° |
| 2026-05-05 13:39 | 39.97518 | 41.45391 | 34020 ft | 439 kts | 261° |
| 2026-05-05 13:40 | 39.96934 | 41.37459 | 34028 ft | 440 kts | 261° |
| 2026-05-05 13:40 | 39.96341 | 41.29528 | 34024 ft | 439 kts | 261° |
| 2026-05-05 13:41 | 39.96160 | 41.21552 | 34067 ft | 445 kts | 273° |
| 2026-05-05 13:41 | 39.97827 | 41.13731 | 34062 ft | 453 kts | 288° |
| 2026-05-05 13:42 | 40.00211 | 41.06112 | 34057 ft | 453 kts | 288° |
| 2026-05-05 13:42 | 40.02559 | 40.98475 | 34052 ft | 454 kts | 288° |
| 2026-05-05 13:43 | 40.04899 | 40.90823 | 34057 ft | 454 kts | 288° |
| 2026-05-05 13:43 | 40.07246 | 40.83164 | 34048 ft | 454 kts | 288° |
| 2026-05-05 13:44 | 40.09583 | 40.75520 | 34033 ft | 455 kts | 288° |
| 2026-05-05 13:44 | 40.11919 | 40.67840 | 34033 ft | 455 kts | 288° |
| 2026-05-05 13:45 | 40.14249 | 40.60150 | 34043 ft | 455 kts | 288° |
| 2026-05-05 13:45 | 40.16584 | 40.52435 | 34037 ft | 455 kts | 288° |
| 2026-05-05 13:46 | 40.18913 | 40.44731 | 34028 ft | 455 kts | 288° |
| 2026-05-05 13:46 | 40.21247 | 40.37001 | 34045 ft | 456 kts | 288° |
| 2026-05-05 13:47 | 40.23567 | 40.29284 | 34037 ft | 456 kts | 288° |
| 2026-05-05 13:47 | 40.25875 | 40.21561 | 34035 ft | 455 kts | 288° |
| 2026-05-05 13:48 | 40.28177 | 40.13836 | 34035 ft | 455 kts | 288° |
| 2026-05-05 13:48 | 40.30465 | 40.06151 | 34047 ft | 455 kts | 288° |
| 2026-05-05 13:49 | 40.32763 | 39.98418 | 34048 ft | 455 kts | 288° |
| 2026-05-05 13:49 | 40.35058 | 39.90679 | 34047 ft | 455 kts | 287° |
| 2026-05-05 13:50 | 40.37342 | 39.82907 | 34071 ft | 456 kts | 288° |
| 2026-05-05 13:50 | 40.39613 | 39.75145 | 34072 ft | 457 kts | 288° |
| 2026-05-05 13:51 | 40.41904 | 39.67356 | 34060 ft | 456 kts | 288° |
| 2026-05-05 13:51 | 40.44168 | 39.59590 | 34068 ft | 456 kts | 287° |
| 2026-05-05 13:52 | 40.46406 | 39.51836 | 34091 ft | 457 kts | 288° |
| 2026-05-05 13:52 | 40.48672 | 39.44005 | 34085 ft | 457 kts | 288° |
| 2026-05-05 13:53 | 40.50931 | 39.36189 | 34100 ft | 458 kts | 288° |
| 2026-05-05 13:53 | 40.53182 | 39.28364 | 34110 ft | 458 kts | 287° |
| 2026-05-05 13:54 | 40.55431 | 39.20522 | 34123 ft | 458 kts | 288° |
| 2026-05-05 13:54 | 40.57680 | 39.12683 | 34133 ft | 458 kts | 288° |
| 2026-05-05 13:55 | 40.59920 | 39.04832 | 34137 ft | 458 kts | 288° |
| 2026-05-05 13:55 | 40.62152 | 38.96971 | 34152 ft | 459 kts | 288° |
| 2026-05-05 13:56 | 40.64357 | 38.89156 | 34152 ft | 458 kts | 288° |
| 2026-05-05 13:56 | 40.66555 | 38.81274 | 34143 ft | 458 kts | 288° |
| 2026-05-05 13:57 | 40.68731 | 38.73392 | 34147 ft | 457 kts | 287° |
| 2026-05-05 13:57 | 40.70907 | 38.65493 | 34146 ft | 457 kts | 287° |
| 2026-05-05 13:58 | 40.73080 | 38.57610 | 34154 ft | 457 kts | 287° |
| 2026-05-05 13:58 | 40.75246 | 38.49712 | 34151 ft | 457 kts | 287° |
| 2026-05-05 13:59 | 40.78480 | 38.37860 | 34163 ft | 457 kts | 288° |
| 2026-05-05 14:00 | 40.81356 | 38.27307 | 34148 ft | 459 kts | 287° |
| 2026-05-05 14:00 | 40.83859 | 38.18059 | 34143 ft | 459 kts | 287° |
| 2026-05-05 14:01 | 40.86011 | 38.10111 | 34144 ft | 460 kts | 287° |
| 2026-05-05 14:01 | 40.88159 | 38.02145 | 34143 ft | 461 kts | 288° |
| 2026-05-05 14:02 | 40.90304 | 37.94142 | 34139 ft | 462 kts | 288° |
| 2026-05-05 14:02 | 40.92437 | 37.86177 | 34138 ft | 462 kts | 288° |
| 2026-05-05 14:03 | 40.94578 | 37.78155 | 34148 ft | 463 kts | 288° |
| 2026-05-05 14:03 | 40.96713 | 37.70119 | 34151 ft | 463 kts | 288° |
| 2026-05-05 14:04 | 40.98840 | 37.62072 | 34152 ft | 463 kts | 288° |
| 2026-05-05 14:04 | 41.00968 | 37.53997 | 34155 ft | 463 kts | 288° |
| 2026-05-05 14:05 | 41.03090 | 37.45937 | 34158 ft | 464 kts | 288° |
| 2026-05-05 14:05 | 41.05210 | 37.37859 | 34160 ft | 464 kts | 288° |
| 2026-05-05 14:06 | 41.07326 | 37.29772 | 34156 ft | 464 kts | 288° |
| 2026-05-05 14:06 | 41.09422 | 37.21712 | 34158 ft | 464 kts | 288° |
| 2026-05-05 14:07 | 41.11531 | 37.13610 | 34160 ft | 464 kts | 289° |
| 2026-05-05 14:07 | 41.13629 | 37.05510 | 34160 ft | 464 kts | 288° |
| 2026-05-05 14:08 | 41.15716 | 36.97404 | 34163 ft | 464 kts | 288° |
| 2026-05-05 14:08 | 41.17796 | 36.89294 | 34158 ft | 464 kts | 289° |
| 2026-05-05 14:09 | 41.19873 | 36.81182 | 34157 ft | 464 kts | 289° |
| 2026-05-05 14:09 | 41.21945 | 36.73059 | 34157 ft | 464 kts | 288° |
| 2026-05-05 14:10 | 41.24007 | 36.64951 | 34152 ft | 464 kts | 289° |
| 2026-05-05 14:10 | 41.26060 | 36.56857 | 34154 ft | 464 kts | 289° |
| 2026-05-05 14:11 | 41.28124 | 36.48729 | 34162 ft | 463 kts | 289° |
| 2026-05-05 14:11 | 41.30206 | 36.40621 | 34162 ft | 463 kts | 289° |
| 2026-05-05 14:12 | 41.31931 | 36.33876 | 34161 ft | 463 kts | 289° |
| 2026-05-05 14:12 | 41.33999 | 36.25751 | 34164 ft | 463 kts | 289° |
| 2026-05-05 14:13 | 41.36048 | 36.17629 | 34160 ft | 463 kts | 289° |
| 2026-05-05 14:13 | 41.38091 | 36.09495 | 34158 ft | 463 kts | 289° |
| 2026-05-05 14:14 | 41.40133 | 36.01371 | 34162 ft | 462 kts | 289° |
| 2026-05-05 14:14 | 41.42166 | 35.93244 | 34147 ft | 462 kts | 289° |
| 2026-05-05 14:15 | 41.44188 | 35.85115 | 34148 ft | 462 kts | 289° |
| 2026-05-05 14:15 | 41.46206 | 35.76980 | 34148 ft | 462 kts | 289° |
| 2026-05-05 14:16 | 41.48231 | 35.68831 | 34149 ft | 462 kts | 289° |
| 2026-05-05 14:16 | 41.50232 | 35.60740 | 34148 ft | 462 kts | 289° |
| 2026-05-05 14:17 | 41.52234 | 35.52597 | 34148 ft | 462 kts | 289° |
| 2026-05-05 14:17 | 41.54233 | 35.44430 | 34145 ft | 462 kts | 289° |
| 2026-05-05 14:18 | 41.56223 | 35.36256 | 34133 ft | 462 kts | 289° |
| 2026-05-05 14:18 | 41.58188 | 35.28152 | 34140 ft | 462 kts | 289° |
| 2026-05-05 14:19 | 41.60170 | 35.19990 | 34144 ft | 461 kts | 289° |
| 2026-05-05 14:19 | 41.62142 | 35.11844 | 34143 ft | 460 kts | 289° |
| 2026-05-05 14:20 | 41.64104 | 35.03688 | 34137 ft | 460 kts | 289° |
| 2026-05-05 14:20 | 41.66058 | 34.95521 | 34139 ft | 460 kts | 289° |
| 2026-05-05 14:21 | 41.67996 | 34.87426 | 34138 ft | 460 kts | 289° |
| 2026-05-05 14:21 | 41.69945 | 34.79267 | 34139 ft | 460 kts | 289° |
| 2026-05-05 14:22 | 41.71880 | 34.71112 | 34134 ft | 459 kts | 290° |
| 2026-05-05 14:22 | 41.73804 | 34.62951 | 34149 ft | 459 kts | 290° |
| 2026-05-05 14:23 | 41.75723 | 34.54796 | 34149 ft | 458 kts | 290° |
| 2026-05-05 14:23 | 41.77643 | 34.46654 | 34147 ft | 458 kts | 290° |
| 2026-05-05 14:24 | 41.79541 | 34.38556 | 34136 ft | 458 kts | 290° |
| 2026-05-05 14:24 | 41.81432 | 34.30412 | 34145 ft | 457 kts | 290° |
| 2026-05-05 14:25 | 41.83326 | 34.22243 | 34151 ft | 457 kts | 290° |
| 2026-05-05 14:25 | 41.85212 | 34.14111 | 34142 ft | 457 kts | 290° |
| 2026-05-05 14:26 | 41.87092 | 34.05961 | 34141 ft | 456 kts | 290° |
| 2026-05-05 14:26 | 41.88961 | 33.97813 | 34157 ft | 456 kts | 290° |
| 2026-05-05 14:27 | 41.90819 | 33.89704 | 34157 ft | 456 kts | 290° |
| 2026-05-05 14:27 | 41.92674 | 33.81565 | 34144 ft | 456 kts | 290° |
| 2026-05-05 14:28 | 41.94522 | 33.73426 | 34150 ft | 455 kts | 290° |
| 2026-05-05 14:28 | 41.96291 | 33.65250 | 34153 ft | 456 kts | 289° |
| 2026-05-05 14:29 | 41.97861 | 33.56973 | 34160 ft | 457 kts | 288° |
| 2026-05-05 14:29 | 41.99382 | 33.48734 | 34131 ft | 457 kts | 288° |
| 2026-05-05 14:30 | 42.00949 | 33.40450 | 34136 ft | 456 kts | 288° |
| 2026-05-05 14:30 | 42.02536 | 33.32192 | 34154 ft | 456 kts | 288° |
| 2026-05-05 14:31 | 42.04112 | 33.23928 | 34160 ft | 455 kts | 288° |
| 2026-05-05 14:31 | 42.05675 | 33.15661 | 34143 ft | 455 kts | 288° |
| 2026-05-05 14:32 | 42.07228 | 33.07399 | 34149 ft | 455 kts | 288° |
| 2026-05-05 14:32 | 42.08866 | 32.99153 | 34153 ft | 455 kts | 289° |
| 2026-05-05 14:33 | 42.10570 | 32.91007 | 34157 ft | 454 kts | 290° |
| 2026-05-05 14:33 | 42.12272 | 32.82789 | 34126 ft | 454 kts | 289° |
| 2026-05-05 14:34 | 42.13937 | 32.74578 | 34140 ft | 454 kts | 289° |
| 2026-05-05 14:34 | 42.15585 | 32.66402 | 34150 ft | 454 kts | 289° |
| 2026-05-05 14:35 | 42.17239 | 32.58182 | 34151 ft | 454 kts | 289° |
| 2026-05-05 14:35 | 42.18875 | 32.49975 | 34151 ft | 454 kts | 289° |
| 2026-05-05 14:36 | 42.20514 | 32.41749 | 34152 ft | 454 kts | 289° |
| 2026-05-05 14:36 | 42.22145 | 32.33519 | 34154 ft | 454 kts | 289° |
| 2026-05-05 14:37 | 42.23769 | 32.25294 | 34152 ft | 453 kts | 289° |
| 2026-05-05 14:37 | 42.25389 | 32.17067 | 34136 ft | 453 kts | 288° |
| 2026-05-05 14:38 | 42.26997 | 32.08838 | 34140 ft | 453 kts | 288° |
| 2026-05-05 14:38 | 42.28590 | 32.00652 | 34156 ft | 453 kts | 288° |
| 2026-05-05 14:39 | 42.30194 | 31.92413 | 34156 ft | 453 kts | 288° |
| 2026-05-05 14:39 | 42.31791 | 31.84179 | 34132 ft | 453 kts | 288° |
| 2026-05-05 14:40 | 42.33383 | 31.75927 | 34141 ft | 453 kts | 288° |
| 2026-05-05 14:40 | 42.34973 | 31.67669 | 34143 ft | 453 kts | 288° |
| 2026-05-05 14:41 | 42.36557 | 31.59422 | 34151 ft | 453 kts | 288° |
| 2026-05-05 14:41 | 42.38129 | 31.51181 | 34142 ft | 453 kts | 288° |
| 2026-05-05 14:42 | 42.39694 | 31.42924 | 34155 ft | 452 kts | 288° |
| 2026-05-05 14:42 | 42.41262 | 31.34660 | 34167 ft | 452 kts | 288° |
| 2026-05-05 14:43 | 42.42805 | 31.26466 | 34167 ft | 452 kts | 287° |
| 2026-05-05 14:43 | 42.44351 | 31.18195 | 34146 ft | 452 kts | 287° |
| 2026-05-05 14:44 | 42.45881 | 31.09942 | 34157 ft | 452 kts | 287° |
| 2026-05-05 14:44 | 42.47415 | 31.01694 | 34162 ft | 451 kts | 287° |
| 2026-05-05 14:45 | 42.48947 | 30.93436 | 34170 ft | 451 kts | 287° |
| 2026-05-05 14:45 | 42.50463 | 30.85161 | 34158 ft | 451 kts | 287° |
| 2026-05-05 14:46 | 42.51960 | 30.76955 | 34161 ft | 451 kts | 287° |
| 2026-05-05 14:46 | 42.53463 | 30.68679 | 34167 ft | 452 kts | 287° |
| 2026-05-05 14:47 | 42.54963 | 30.60406 | 34174 ft | 452 kts | 287° |
| 2026-05-05 14:47 | 42.56466 | 30.52127 | 34156 ft | 452 kts | 287° |
| 2026-05-05 14:48 | 42.57964 | 30.43827 | 34156 ft | 452 kts | 287° |
| 2026-05-05 14:48 | 42.59429 | 30.35573 | 34160 ft | 453 kts | 287° |
| 2026-05-05 14:49 | 42.61233 | 30.27412 | 34168 ft | 448 kts | 298° |
| 2026-05-05 14:49 | 42.64542 | 30.20349 | 34157 ft | 442 kts | 310° |
| 2026-05-05 14:50 | 42.68310 | 30.13722 | 34159 ft | 444 kts | 310° |
| 2026-05-05 14:50 | 42.72070 | 30.07055 | 34164 ft | 444 kts | 310° |
| 2026-05-05 14:51 | 42.75833 | 30.00379 | 34171 ft | 445 kts | 310° |
| 2026-05-05 14:51 | 42.79606 | 29.93687 | 34158 ft | 445 kts | 310° |
| 2026-05-05 14:52 | 42.83369 | 29.87015 | 34163 ft | 447 kts | 310° |
| 2026-05-05 14:52 | 42.87154 | 29.80279 | 34166 ft | 447 kts | 310° |
| 2026-05-05 14:53 | 42.90302 | 29.74647 | 34181 ft | 448 kts | 310° |
| 2026-05-05 14:53 | 42.94079 | 29.67883 | 34168 ft | 448 kts | 309° |
| 2026-05-05 14:54 | 42.97860 | 29.61099 | 34165 ft | 449 kts | 309° |
| 2026-05-05 14:54 | 43.01648 | 29.54293 | 34175 ft | 450 kts | 309° |
| 2026-05-05 14:55 | 43.05443 | 29.47482 | 34175 ft | 450 kts | 309° |
| 2026-05-05 14:55 | 43.09226 | 29.40661 | 34182 ft | 450 kts | 309° |
| 2026-05-05 14:56 | 43.12979 | 29.33861 | 34178 ft | 450 kts | 309° |
| 2026-05-05 14:56 | 43.16749 | 29.27001 | 34179 ft | 450 kts | 309° |
| 2026-05-05 14:57 | 43.20520 | 29.20148 | 34183 ft | 450 kts | 309° |
| 2026-05-05 14:57 | 43.24293 | 29.13272 | 34184 ft | 451 kts | 309° |
| 2026-05-05 14:58 | 43.28063 | 29.06386 | 34181 ft | 451 kts | 309° |
| 2026-05-05 14:58 | 43.31842 | 28.99472 | 34181 ft | 452 kts | 308° |
| 2026-05-05 14:59 | 43.35593 | 28.92591 | 34178 ft | 452 kts | 308° |